Terminal Aerodrome Forecast
Issued by NWS Charleston, WV

Current Version | Previous Version | Graphics & Text | Print | Product List | Glossary On
Versions: 1 2 3 4 5 6 7 8 9 10 11 12 13 14 15 16 17 18 19 20 21 22 23
000
FTUS41 KRLX 142322
TAFEKN
TAF
KEKN 142322Z 1500/1524 00000KT P6SM FEW045
     FM150300 17003KT P6SM SKC
     FM150700 18003KT 3SM BR FEW001
     FM150800 00000KT 1/2SM FG VV001
     FM151100 18003KT 2SM BR BKN002
     FM151230 21007KT P6SM SCT025
     FM151400 24010KT P6SM FEW040 FEW250
     FM151800 25013G23KT P6SM BKN045=

USA.gov is the U.S. government's official web portal to all federal, state and local government web resources and services.